createdAt,value
2022-10-21T00:01:40.409Z,7.87
2022-10-21T00:04:07.027Z,7.90
2022-10-21T00:06:33.504Z,7.13
2022-10-21T00:09:00.139Z,8.87
2022-10-21T00:11:27.061Z,8.20
2022-10-21T00:13:54.078Z,8.40
2022-10-21T00:16:20.597Z,8.17
2022-10-21T00:18:48.019Z,9.67
2022-10-21T00:21:19.592Z,9.00
2022-10-21T00:23:47.088Z,9.53
2022-10-21T00:26:14.794Z,8.77
2022-10-21T00:28:42.223Z,8.77
2022-10-21T00:31:10.345Z,8.80
2022-10-21T00:33:37.451Z,9.57
2022-10-21T00:36:06.030Z,8.90
2022-10-21T00:38:33.005Z,8.87
2022-10-21T00:40:59.776Z,9.13
2022-10-21T00:43:27.166Z,9.33
2022-10-21T00:45:57.563Z,9.03
2022-10-21T00:48:27.094Z,9.47
2022-10-21T00:50:59.926Z,9.30
2022-10-21T00:53:26.985Z,8.30
2022-10-21T00:56:00.619Z,8.90
2022-10-21T00:58:30.907Z,9.53
2022-10-21T01:00:58.479Z,8.57
2022-10-21T01:03:26.147Z,8.70
2022-10-21T01:05:54.151Z,8.27
2022-10-21T01:08:20.823Z,8.90
2022-10-21T01:10:47.473Z,9.27
2022-10-21T01:13:51.643Z,8.20
2022-10-21T01:16:41.216Z,9.30
2022-10-21T01:19:47.381Z,8.63
2022-10-21T01:22:32.192Z,9.10
2022-10-21T01:25:36.229Z,10.10
2022-10-21T01:28:08.773Z,8.93
2022-10-21T01:30:40.371Z,10.07
2022-10-21T01:33:19.150Z,9.17
2022-10-21T01:35:55.051Z,8.70
2022-10-21T01:38:32.846Z,8.70
2022-10-21T01:41:06.147Z,8.97
2022-10-21T01:43:38.806Z,9.00
2022-10-21T01:46:12.997Z,9.23
2022-10-21T01:48:43.994Z,9.33
2022-10-21T01:51:11.277Z,9.80
2022-10-21T01:53:56.129Z,8.83
2022-10-21T01:56:22.936Z,10.50
2022-10-21T01:58:50.168Z,10.07
2022-10-21T02:01:17.913Z,10.67
2022-10-21T02:03:46.753Z,10.60
2022-10-21T02:06:14.124Z,9.60
2022-10-21T02:08:42.331Z,9.50
2022-10-21T02:11:11.034Z,9.97
2022-10-21T02:13:49.162Z,9.53
2022-10-21T02:16:17.858Z,9.10
2022-10-21T02:18:44.548Z,9.67
2022-10-21T02:21:18.963Z,8.73
2022-10-21T02:23:57.895Z,9.90
2022-10-21T02:26:26.529Z,9.10
2022-10-21T02:28:54.045Z,10.27
2022-10-21T02:31:23.557Z,10.70
2022-10-21T02:34:08.288Z,9.23
2022-10-21T02:36:56.703Z,9.70
2022-10-21T02:39:35.219Z,9.20
2022-10-21T02:42:04.613Z,10.37
2022-10-21T02:44:31.130Z,10.17
2022-10-21T02:46:57.711Z,10.60
2022-10-21T02:49:24.542Z,10.07
2022-10-21T02:51:50.970Z,10.40
2022-10-21T02:54:17.453Z,10.10
2022-10-21T02:56:43.922Z,10.27
2022-10-21T02:59:10.798Z,10.40
2022-10-21T03:01:37.209Z,10.30
2022-10-21T03:04:03.671Z,11.20
2022-10-21T03:06:30.216Z,11.30
2022-10-21T03:08:56.671Z,9.93
2022-10-21T03:11:23.161Z,10.90
2022-10-21T03:13:49.613Z,10.07
2022-10-21T03:16:16.368Z,11.00
2022-10-21T03:18:43.449Z,10.40
2022-10-21T03:21:09.930Z,11.53
2022-10-21T03:23:36.352Z,12.30
2022-10-21T03:26:02.757Z,13.53
2022-10-21T03:28:30.429Z,20.07
2022-10-21T03:30:56.997Z,17.67
2022-10-21T03:33:23.464Z,18.80
2022-10-21T03:35:49.849Z,17.20
2022-10-21T03:38:16.673Z,16.67
2022-10-21T03:40:43.106Z,14.93
2022-10-21T03:43:09.570Z,15.60
2022-10-21T03:45:36.070Z,15.60
2022-10-21T03:48:02.560Z,15.27
2022-10-21T03:50:29.121Z,15.90
2022-10-21T03:52:55.652Z,14.00
2022-10-21T03:55:24.238Z,11.63
2022-10-21T03:57:51.560Z,13.20
2022-10-21T04:00:18.219Z,11.83
2022-10-21T04:02:44.726Z,12.03
2022-10-21T04:05:11.837Z,12.73
2022-10-21T04:07:38.364Z,14.17
2022-10-21T04:10:06.318Z,12.37
2022-10-21T04:12:32.884Z,13.37
2022-10-21T04:14:59.329Z,13.47
2022-10-21T04:17:26.469Z,11.83
2022-10-21T04:19:52.931Z,12.53
2022-10-21T04:22:19.372Z,11.47
2022-10-21T04:24:45.829Z,10.67
2022-10-21T04:27:12.316Z,9.33
2022-10-21T04:29:38.809Z,10.83
2022-10-21T04:32:05.430Z,10.03
2022-10-21T04:34:31.926Z,10.50
2022-10-21T04:37:01.103Z,12.93
2022-10-21T04:39:30.735Z,10.77
2022-10-21T04:41:57.322Z,8.70
2022-10-21T04:44:23.802Z,11.73
2022-10-21T04:46:50.753Z,8.73
2022-10-21T04:49:17.316Z,10.10
2022-10-21T04:51:43.908Z,11.00
2022-10-21T04:54:10.461Z,10.73
2022-10-21T04:56:36.931Z,10.13
2022-10-21T04:59:03.469Z,7.73
2022-10-21T05:01:29.961Z,8.27
2022-10-21T05:03:56.466Z,8.30
2022-10-21T05:06:23.056Z,8.80
2022-10-21T05:08:49.612Z,7.90
2022-10-21T05:11:16.154Z,7.50
2022-10-21T05:13:42.625Z,7.23
2022-10-21T05:16:09.066Z,5.93
2022-10-21T05:18:35.575Z,7.07
2022-10-21T05:21:02.723Z,4.70
2022-10-21T05:23:29.380Z,4.70
2022-10-21T05:25:55.839Z,4.60
2022-10-21T05:28:22.654Z,5.10
2022-10-21T05:30:49.395Z,4.50
2022-10-21T05:33:16.532Z,4.90
2022-10-21T05:35:42.978Z,3.93
2022-10-21T05:38:09.489Z,4.83
2022-10-21T05:40:35.945Z,4.40
2022-10-21T05:43:02.442Z,4.50
2022-10-21T05:45:29.054Z,4.40
2022-10-21T05:47:55.515Z,4.37
2022-10-21T05:50:21.991Z,3.67
2022-10-21T05:52:48.867Z,3.57
2022-10-21T05:55:15.459Z,3.53
2022-10-21T05:57:42.135Z,3.80
2022-10-21T06:00:09.749Z,3.50
2022-10-21T06:02:44.506Z,3.80
2022-10-21T06:05:11.138Z,3.63
2022-10-21T06:07:37.903Z,3.30
2022-10-21T06:10:05.355Z,3.77
2022-10-21T06:12:31.866Z,3.80
2022-10-21T06:14:58.425Z,4.90
2022-10-21T06:17:24.959Z,13.33
2022-10-21T06:19:51.490Z,5.50
2022-10-21T06:22:18.144Z,4.30
2022-10-21T06:24:44.616Z,7.63
2022-10-21T06:27:11.127Z,7.70
2022-10-21T06:29:47.611Z,7.23
2022-10-21T06:32:14.056Z,7.53
2022-10-21T06:34:40.747Z,4.27
2022-10-21T06:37:07.210Z,4.97
2022-10-21T06:39:33.760Z,4.00
2022-10-21T06:42:00.175Z,3.87
2022-10-21T06:44:26.636Z,3.00
2022-10-21T06:46:54.108Z,3.63
2022-10-21T06:49:20.583Z,3.90
2022-10-21T06:51:47.032Z,3.67
2022-10-21T06:54:13.571Z,3.50
2022-10-21T06:56:40.338Z,3.30
2022-10-21T06:59:06.884Z,3.87
2022-10-21T07:01:48.152Z,3.60
2022-10-21T07:04:20.017Z,3.87
2022-10-21T07:06:46.469Z,3.67
2022-10-21T07:09:13.104Z,3.60
2022-10-21T07:11:39.781Z,4.43
2022-10-21T07:14:07.451Z,4.33
2022-10-21T07:16:38.839Z,5.00
2022-10-21T07:19:10.211Z,5.30
2022-10-21T07:21:36.725Z,4.57
2022-10-21T07:24:03.277Z,4.50
2022-10-21T07:26:31.801Z,4.73
2022-10-21T07:28:59.789Z,4.13
2022-10-21T07:31:27.033Z,4.77
2022-10-21T07:33:54.116Z,4.97
2022-10-21T07:36:25.914Z,4.50
2022-10-21T07:38:53.662Z,4.60
2022-10-21T07:41:22.741Z,4.97
2022-10-21T07:43:49.974Z,4.70
2022-10-21T07:46:18.174Z,5.13
2022-10-21T07:48:44.793Z,4.60
2022-10-21T07:51:13.794Z,5.57
2022-10-21T07:53:40.811Z,5.33
2022-10-21T07:56:08.248Z,5.57
2022-10-21T07:58:35.302Z,4.33
2022-10-21T08:01:03.574Z,4.20
2022-10-21T08:03:30.314Z,4.67
2022-10-21T08:05:57.305Z,6.83
2022-10-21T08:08:24.972Z,5.50
2022-10-21T08:10:52.760Z,6.20
2022-10-21T08:13:19.813Z,5.90
2022-10-21T08:15:49.153Z,6.00
2022-10-21T08:18:16.665Z,5.97
2022-10-21T08:20:44.430Z,6.20
2022-10-21T08:23:11.997Z,4.97
2022-10-21T08:25:38.570Z,5.30
2022-10-21T08:28:05.814Z,4.23
2022-10-21T08:30:32.902Z,5.03
2022-10-21T08:32:59.572Z,5.40
2022-10-21T08:35:27.067Z,5.30
2022-10-21T08:37:54.166Z,4.97
2022-10-21T08:40:20.900Z,5.00
2022-10-21T08:42:47.488Z,5.13
2022-10-21T08:45:32.926Z,4.70
2022-10-21T08:48:03.758Z,4.13
2022-10-21T08:50:35.656Z,4.70
2022-10-21T08:53:06.390Z,4.50
2022-10-21T08:55:37.090Z,5.67
2022-10-21T08:58:04.371Z,5.40
2022-10-21T09:01:05.587Z,4.67
2022-10-21T09:03:48.329Z,4.37
2022-10-21T09:06:28.366Z,4.60
2022-10-21T09:09:02.271Z,4.20
2022-10-21T09:11:51.949Z,4.87
2022-10-21T09:14:27.680Z,4.77
2022-10-21T09:17:01.961Z,5.60
2022-10-21T09:19:37.587Z,5.40
2022-10-21T09:22:35.983Z,5.10
2022-10-21T09:25:19.398Z,4.13
2022-10-21T09:28:01.991Z,4.33
2022-10-21T09:30:28.855Z,4.40
2022-10-21T09:32:59.912Z,4.00
2022-10-21T09:35:44.123Z,4.80
2022-10-21T09:38:10.535Z,4.87
2022-10-21T09:40:36.993Z,8.87
2022-10-21T09:43:04.209Z,4.80
2022-10-21T09:45:36.642Z,5.60
2022-10-21T09:48:18.155Z,5.40
2022-10-21T09:50:51.624Z,4.80
2022-10-21T09:53:26.571Z,5.27
2022-10-21T09:56:02.331Z,4.50
2022-10-21T09:58:36.606Z,5.13
2022-10-21T10:01:03.653Z,7.33
2022-10-21T10:03:34.272Z,6.60
2022-10-21T10:06:01.761Z,6.53
2022-10-21T10:08:33.795Z,5.60
2022-10-21T10:11:04.358Z,4.80
2022-10-21T10:13:31.967Z,4.60
2022-10-21T10:16:19.415Z,3.90
2022-10-21T10:18:46.021Z,4.73
2022-10-21T10:21:17.541Z,4.17
2022-10-21T10:23:44.089Z,5.57
2022-10-21T10:26:10.949Z,4.80
2022-10-21T10:28:37.589Z,5.80
2022-10-21T10:31:04.199Z,6.50
2022-10-21T10:33:35.178Z,7.00
2022-10-21T10:36:05.573Z,11.70
2022-10-21T10:38:38.089Z,8.43
2022-10-21T10:41:07.951Z,6.90
2022-10-21T10:43:44.013Z,6.63
2022-10-21T10:46:20.942Z,6.73
2022-10-21T10:48:50.625Z,6.70
2022-10-21T10:51:24.232Z,6.90
2022-10-21T10:54:20.328Z,6.87
2022-10-21T10:56:58.845Z,7.00
2022-10-21T10:59:44.810Z,6.90
2022-10-21T11:02:12.130Z,5.70
2022-10-21T11:04:46.462Z,5.97
2022-10-21T11:07:17.342Z,5.63
2022-10-21T11:09:44.143Z,5.87
2022-10-21T11:12:20.298Z,9.00
2022-10-21T11:14:51.084Z,6.57
2022-10-21T11:17:20.822Z,5.70
2022-10-21T11:20:13.423Z,6.37
2022-10-21T11:23:23.330Z,7.00
2022-10-21T11:26:03.380Z,6.87
2022-10-21T11:28:35.993Z,6.60
2022-10-21T11:31:26.634Z,7.07
2022-10-21T11:34:11.426Z,5.53
2022-10-21T11:36:49.410Z,6.30
2022-10-21T11:39:24.823Z,5.73
2022-10-21T11:42:11.014Z,5.40
2022-10-21T11:45:16.801Z,5.10
2022-10-21T11:47:49.114Z,5.03
2022-10-21T11:50:15.773Z,4.67
2022-10-21T11:52:51.637Z,4.43
2022-10-21T11:55:55.826Z,5.57
2022-10-21T11:58:47.501Z,3.97
2022-10-21T12:01:41.290Z,5.43
2022-10-21T12:04:21.569Z,4.90
2022-10-21T12:06:53.518Z,3.97
2022-10-21T12:09:24.259Z,4.93
2022-10-21T12:12:05.853Z,4.70
2022-10-21T12:14:52.141Z,4.67
2022-10-21T12:17:21.098Z,5.30
2022-10-21T12:20:01.791Z,4.53
2022-10-21T12:22:29.379Z,4.33
2022-10-21T12:25:35.504Z,4.33
2022-10-21T12:28:11.823Z,3.30
2022-10-21T12:30:43.704Z,2.40
2022-10-21T12:33:38.308Z,2.73
2022-10-21T12:36:40.221Z,3.00
2022-10-21T12:39:32.855Z,3.87
2022-10-21T12:42:12.521Z,4.37
2022-10-21T12:44:40.143Z,2.83
2022-10-21T12:47:32.158Z,3.37
2022-10-21T12:50:14.073Z,5.30
2022-10-21T12:52:44.667Z,5.73
2022-10-21T12:55:21.215Z,3.63
2022-10-21T12:57:56.827Z,2.80
2022-10-21T13:03:25.599Z,4.67
2022-10-21T13:06:02.762Z,4.80
2022-10-21T13:08:38.515Z,5.47
2022-10-21T13:11:08.082Z,4.43
2022-10-21T13:13:39.363Z,3.80
2022-10-21T13:16:18.037Z,3.50
2022-10-21T13:18:50.553Z,3.77
2022-10-21T13:21:31.160Z,3.50
2022-10-21T13:24:06.179Z,2.60
2022-10-21T13:26:32.761Z,2.83
2022-10-21T13:29:05.336Z,2.63
2022-10-21T13:31:31.929Z,2.70
2022-10-21T13:33:58.645Z,3.20
2022-10-21T13:39:25.012Z,2.30
2022-10-21T13:42:06.936Z,2.07
2022-10-21T13:44:35.963Z,2.23
2022-10-21T13:47:38.194Z,1.80
2022-10-21T13:50:10.427Z,1.97
2022-10-21T13:52:36.846Z,1.87
2022-10-21T13:55:05.297Z,1.73
2022-10-21T13:57:35.474Z,1.90
2022-10-21T14:00:15.904Z,2.10
2022-10-21T14:02:47.811Z,1.80
2022-10-21T14:05:59.372Z,2.10
2022-10-21T14:08:33.177Z,2.00
2022-10-21T14:11:02.413Z,2.13
2022-10-21T14:13:36.898Z,2.13
2022-10-21T14:16:04.749Z,1.97
2022-10-21T14:18:37.142Z,2.30
2022-10-21T14:21:05.560Z,1.90
2022-10-21T14:23:32.392Z,1.83
2022-10-21T14:26:05.827Z,1.80
2022-10-21T14:28:33.653Z,1.83
2022-10-21T14:31:01.361Z,1.80
2022-10-21T14:33:28.954Z,2.40
2022-10-21T14:36:14.735Z,1.87
2022-10-21T14:38:42.763Z,3.23
2022-10-21T14:41:15.348Z,2.77
2022-10-21T14:43:43.798Z,1.83
2022-10-21T14:46:10.740Z,2.47
2022-10-21T14:48:46.544Z,1.87
2022-10-21T14:51:17.700Z,2.27
2022-10-21T14:53:57.957Z,2.33
2022-10-21T14:56:30.807Z,2.87
2022-10-21T14:58:59.334Z,2.03
2022-10-21T15:01:26.045Z,2.37
2022-10-21T15:03:58.141Z,2.70
2022-10-21T15:06:31.122Z,2.20
2022-10-21T15:08:58.818Z,2.00
2022-10-21T15:11:25.839Z,2.23
2022-10-21T15:14:14.069Z,2.13
2022-10-21T15:16:50.618Z,2.00
2022-10-21T15:19:23.173Z,2.83
2022-10-21T15:21:53.030Z,2.00
2022-10-21T15:24:24.665Z,2.27
2022-10-21T15:26:52.811Z,2.47
2022-10-21T15:29:34.638Z,2.37
2022-10-21T15:32:01.594Z,1.70
2022-10-21T15:34:28.381Z,1.77
2022-10-21T15:36:55.248Z,1.67
2022-10-21T15:39:21.721Z,1.90
2022-10-21T15:41:49.984Z,1.70
2022-10-21T15:44:33.686Z,2.50
2022-10-21T15:47:02.463Z,2.10
2022-10-21T15:49:42.110Z,2.30
2022-10-21T15:52:09.401Z,1.30
2022-10-21T15:54:35.869Z,1.73
2022-10-21T15:57:04.460Z,2.47
2022-10-21T15:59:33.164Z,1.67
2022-10-21T16:02:00.650Z,1.60
2022-10-21T16:04:27.549Z,1.50
2022-10-21T16:06:54.403Z,1.67
2022-10-21T16:09:22.461Z,1.90
2022-10-21T16:11:58.985Z,1.83
2022-10-21T16:14:29.552Z,1.83
2022-10-21T16:17:00.146Z,1.50
2022-10-21T16:19:27.090Z,1.53
2022-10-21T16:21:53.628Z,1.60
2022-10-21T16:24:20.110Z,1.57
2022-10-21T16:26:48.730Z,1.60
2022-10-21T16:29:21.204Z,1.73
2022-10-21T16:31:47.922Z,1.73
2022-10-21T16:34:14.341Z,2.17
2022-10-21T16:36:41.073Z,1.93
2022-10-21T16:39:18.639Z,1.63
2022-10-21T16:41:45.103Z,1.40
2022-10-21T16:44:11.631Z,1.93
2022-10-21T16:46:42.730Z,2.30
2022-10-21T16:49:13.987Z,1.80
2022-10-21T16:51:46.104Z,1.90
2022-10-21T16:54:13.815Z,2.40
2022-10-21T16:56:40.429Z,2.00
2022-10-21T16:59:07.844Z,2.03
2022-10-21T17:01:34.658Z,2.60
2022-10-21T17:04:01.154Z,2.80
2022-10-21T17:06:27.804Z,3.10
2022-10-21T17:08:56.757Z,2.90
2022-10-21T17:11:33.993Z,3.00
2022-10-21T17:14:02.156Z,2.50
2022-10-21T17:16:28.812Z,2.60
2022-10-21T17:18:55.415Z,2.57
2022-10-21T17:21:24.603Z,2.40
2022-10-21T17:23:51.687Z,2.40
2022-10-21T17:26:18.541Z,2.60
2022-10-21T17:28:45.364Z,3.10
2022-10-21T17:31:23.359Z,2.60
2022-10-21T17:33:50.966Z,2.57
2022-10-21T17:36:17.869Z,2.33
2022-10-21T17:38:44.789Z,3.00
2022-10-21T17:41:13.632Z,2.60
2022-10-21T17:43:40.484Z,2.57
2022-10-21T17:46:07.560Z,2.23
2022-10-21T17:48:34.073Z,2.90
2022-10-21T17:51:01.761Z,2.73
2022-10-21T17:53:29.413Z,2.90
2022-10-21T17:56:04.353Z,3.40
2022-10-21T17:58:30.953Z,2.90
2022-10-21T18:00:58.011Z,3.00
2022-10-21T18:03:25.782Z,3.20
2022-10-21T18:05:53.295Z,3.10
2022-10-21T18:08:19.837Z,2.90
2022-10-21T18:10:55.350Z,3.30
2022-10-21T18:13:23.244Z,3.00
2022-10-21T18:15:50.378Z,3.07
2022-10-21T18:18:17.930Z,3.10
2022-10-21T18:20:44.630Z,2.60
2022-10-21T18:23:11.307Z,3.83
2022-10-21T18:25:39.026Z,2.83
2022-10-21T18:28:05.693Z,3.30
2022-10-21T18:30:32.797Z,4.10
2022-10-21T18:32:59.435Z,5.03
2022-10-21T18:35:26.082Z,3.40
2022-10-21T18:37:52.628Z,4.07
2022-10-21T18:40:19.295Z,3.93
2022-10-21T18:42:45.777Z,4.10
2022-10-21T18:45:12.358Z,4.30
2022-10-21T18:47:39.183Z,4.50
2022-10-21T18:50:06.443Z,4.40
2022-10-21T18:52:32.907Z,4.20
2022-10-21T18:54:59.890Z,4.47
2022-10-21T18:57:26.430Z,4.90
2022-10-21T18:59:54.431Z,3.87
2022-10-21T19:02:22.366Z,7.60
2022-10-21T19:04:49.463Z,10.07
2022-10-21T19:07:16.820Z,11.20
2022-10-21T19:09:43.401Z,10.70
2022-10-21T19:12:11.980Z,8.30
2022-10-21T19:14:40.384Z,8.17
2022-10-21T19:17:07.122Z,7.00
2022-10-21T19:19:37.181Z,7.93
2022-10-21T19:22:05.781Z,10.73
2022-10-21T19:24:32.205Z,10.87
2022-10-21T19:26:59.266Z,9.33
2022-10-21T19:29:26.556Z,7.37
2022-10-21T19:31:54.184Z,5.77
2022-10-21T19:34:23.593Z,5.43
2022-10-21T19:36:50.454Z,4.20
2022-10-21T19:39:17.026Z,3.33
2022-10-21T19:41:43.869Z,3.80
2022-10-21T19:44:10.379Z,4.17
2022-10-21T19:46:37.566Z,4.20
2022-10-21T19:49:05.384Z,3.30
2022-10-21T19:51:32.429Z,3.67
2022-10-21T19:53:58.902Z,3.47
2022-10-21T19:56:29.683Z,3.90
2022-10-21T19:58:59.524Z,3.20
2022-10-21T20:01:26.675Z,3.23
2022-10-21T20:03:53.993Z,3.63
2022-10-21T20:06:26.304Z,3.10
2022-10-21T20:09:07.487Z,3.90
2022-10-21T20:11:34.504Z,5.17
2022-10-21T20:14:01.150Z,4.10
2022-10-21T20:16:36.551Z,4.83
2022-10-21T20:19:04.377Z,4.60
2022-10-21T20:21:34.509Z,5.57
2022-10-21T20:24:01.256Z,4.50
2022-10-21T20:26:28.878Z,4.30
2022-10-21T20:28:56.601Z,3.97
2022-10-21T20:31:23.362Z,4.30
2022-10-21T20:33:50.770Z,4.00
2022-10-21T20:36:23.057Z,3.73
2022-10-21T20:38:50.386Z,3.80
2022-10-21T20:41:22.645Z,3.90
2022-10-21T20:43:50.239Z,3.10
2022-10-21T20:46:17.357Z,2.73
2022-10-21T20:48:48.308Z,3.10
2022-10-21T20:51:17.665Z,3.30
2022-10-21T20:53:49.719Z,2.90
2022-10-21T20:56:16.705Z,2.60
2022-10-21T20:58:43.597Z,3.30
2022-10-21T21:01:11.664Z,2.87
2022-10-21T21:03:40.781Z,3.23
2022-10-21T21:06:07.565Z,2.33
2022-10-21T21:08:44.570Z,2.77
2022-10-21T21:11:16.179Z,2.47
2022-10-21T21:13:44.558Z,2.77
2022-10-21T21:16:21.980Z,2.97
2022-10-21T21:18:56.664Z,2.43
2022-10-21T21:21:25.184Z,3.00
2022-10-21T21:23:52.408Z,3.10
2022-10-21T21:26:24.344Z,3.43
2022-10-21T21:28:51.664Z,2.33
2022-10-21T21:31:19.825Z,3.33
2022-10-21T21:33:46.455Z,2.50
2022-10-21T21:36:14.507Z,2.83
2022-10-21T21:38:41.271Z,3.30
2022-10-21T21:41:09.829Z,2.90
2022-10-21T21:43:37.926Z,3.47
2022-10-21T21:46:04.560Z,3.70
2022-10-21T21:48:32.150Z,4.20
2022-10-21T21:51:03.448Z,4.80
2022-10-21T21:53:29.955Z,4.17
2022-10-21T21:55:59.762Z,7.03
2022-10-21T21:58:29.516Z,4.57
2022-10-21T22:00:56.016Z,5.30
2022-10-21T22:03:22.542Z,5.07
2022-10-21T22:05:48.994Z,4.10
2022-10-21T22:08:15.587Z,3.87
2022-10-21T22:10:42.570Z,4.03
2022-10-21T22:13:09.258Z,4.10
2022-10-21T22:15:47.678Z,4.00
2022-10-21T22:18:14.473Z,4.50
2022-10-21T22:20:41.141Z,3.83
2022-10-21T22:23:07.664Z,3.47
2022-10-21T22:25:34.377Z,3.17
2022-10-21T22:28:00.827Z,2.93
2022-10-21T22:30:27.345Z,3.13
2022-10-21T22:32:53.800Z,2.90
2022-10-21T22:35:20.227Z,3.30
2022-10-21T22:37:46.727Z,3.03
2022-10-21T22:40:13.445Z,2.90
2022-10-21T22:42:39.941Z,4.90
2022-10-21T22:45:07.259Z,6.47
2022-10-21T22:47:34.003Z,8.30
2022-10-21T22:50:00.578Z,6.90
2022-10-21T22:52:27.042Z,6.73
2022-10-21T22:54:53.519Z,6.07
2022-10-21T22:57:19.985Z,6.90
2022-10-21T22:59:50.595Z,6.43
2022-10-21T23:02:19.830Z,6.73
2022-10-21T23:04:46.291Z,6.80
2022-10-21T23:07:12.963Z,6.90
2022-10-21T23:09:39.487Z,5.77
2022-10-21T23:12:06.150Z,5.07
2022-10-21T23:14:32.634Z,4.80
2022-10-21T23:16:59.096Z,6.07
2022-10-21T23:19:25.653Z,6.27
2022-10-21T23:21:52.352Z,5.43
2022-10-21T23:24:19.809Z,3.90
2022-10-21T23:26:46.980Z,3.50
2022-10-21T23:29:13.679Z,5.80
2022-10-21T23:31:40.224Z,3.57
2022-10-21T23:34:06.795Z,3.73
2022-10-21T23:36:35.403Z,3.37
2022-10-21T23:39:02.402Z,2.80
2022-10-21T23:41:29.075Z,3.00
2022-10-21T23:43:55.739Z,2.50
2022-10-21T23:46:23.471Z,2.40
2022-10-21T23:48:50.066Z,2.70
2022-10-21T23:51:16.605Z,3.00
2022-10-21T23:53:43.106Z,2.43
2022-10-21T23:56:09.566Z,4.80
2022-10-21T23:58:35.973Z,3.00
